Flight Track Log - Related Links

Times and Time Zones

All times are in EDT time to prevent confusion due to time zone crossing. See the N80702 flight status page for this flight to view local times or setup timezone preferences in your user account.

Time Position Orientation Groundspeed Altitude Reporting Facility
EDT Latitude Longitude Course Direction KTS MPH feet Rate Location/Type
Sun 11:09:13 AM 36.7008 -78.5789 North 156 180 2,000  Level Washington Center
Sun 11:10:13 AM 36.7344 -78.5725 North 130 150 1,900 298 Descending Washington Center
Sun 11:11:14 AM 36.7700 -78.5764 355° North 125 144 2,600 645 Climbing Washington Center
Sun 11:12:14 AM 36.8011 -78.5800 355° North 119 137 3,200 595 Climbing Washington Center
Sun 11:13:00 AM 36.8001 -78.5667 North  Level FlightAware Approximate
Sun 11:13:15 AM 36.8344 -78.5814 358° North 119 137 3,800  Level Washington Center
Sun 11:14:15 AM 36.8781 -78.5831 358° North 125 144 4,600 550 Climbing Washington Center
Sun 11:15:15 AM 36.9158 -78.5844 358° North 125 144 4,900 305 Climbing Washington Center
Sun 11:16:13 AM 36.9594 -78.5861 358° North 136 157 5,200 504 Climbing Washington Center
Sun 11:17:14 AM 36.9992 -78.5878 358° North 141 162 5,900 694 Climbing Washington Center
Sun 11:18:14 AM 37.0364 -78.5919 355° North 141 162 6,600 545 Climbing Washington Center
Sun 11:19:15 AM 37.0761 -78.5961 355° North 141 162 7,000 202 Climbing Washington Center
Sun 11:20:13 AM 37.1197 -78.5978 358° North 141 162 7,000  Level Washington Center
Sun 11:21:14 AM 37.1678 -78.5969 North 151 174 7,000  Level Washington Center
Sun 11:22:15 AM 37.2178 -78.5989 358° North 162 186 7,000  Level Washington Center
Sun 11:23:16 AM 37.2658 -78.6033 356° North 162 186 7,000  Level Washington Center
Sun 11:24:14 AM 37.3117 -78.6053 358° North 162 186 7,000  Level Washington Center
Sun 11:25:14 AM 37.3572 -78.6097 356° North 162 186 7,000  Level Washington Center
Sun 11:26:15 AM 37.4011 -78.6089 North 162 186 7,000  Level Washington Center
Sun 11:27:15 AM 37.4469 -78.6133 356° North 162 186 7,000  Level Washington Center
Sun 11:28:13 AM 37.4906 -78.6175 356° North 162 186 7,000  Level Washington Center
Sun 11:29:13 AM 37.5428 -78.6169 360° North 162 186 7,000  Level Washington Center
Sun 11:30:14 AM 37.5886 -78.6189 358° North 162 186 7,000  Level Washington Center
Sun 11:31:14 AM 37.6344 -78.6233 356° North 162 186 7,000  Level Washington Center
Sun 11:32:15 AM 37.6781 -78.6278 355° North 162 186 7,000  Level Washington Center
Sun 11:33:15 AM 37.7197 -78.6294 358° North 162 186 7,000 51 Level Washington Center
Sun 11:34:13 AM 37.7656 -78.6311 358° North 162 186 7,100 35 Climbing Washington Center
Sun 11:36:05 AM 37.8500 -78.6333 359° North 165 190 7,100  Level Potomac TRACON
Sun 11:37:05 AM 37.9000 -78.6333 360° North 168 193 7,100  Level Potomac TRACON
Sun 11:38:05 AM 37.9500 -78.6333 360° North 164 189 7,100  Level Potomac TRACON
Sun 11:39:05 AM 37.9833 -78.6333 360° North 162 186 7,100  Level Potomac TRACON
Sun 11:40:05 AM 38.0333 -78.6500 345° North 163 188 7,100  Level Potomac TRACON
Sun 11:41:05 AM 38.0833 -78.6500 360° North 159 183 7,100  Level Potomac TRACON
Sun 11:42:05 AM 38.1167 -78.6500 360° North 162 186 7,100  Level Potomac TRACON
Sun 11:43:05 AM 38.1667 -78.6500 360° North 164 189 7,100  Level Potomac TRACON
Sun 11:44:05 AM 38.2167 -78.6500 360° North 163 188 7,100  Level Potomac TRACON
Sun 11:44:39 AM 38.2364 -78.6583 342° North 172 198 7,100 -65 Level Washington Center
Sun 11:45:37 AM 38.2758 -78.6597 358° North 170 196 7,000 -50 Descending Washington Center
Sun 11:46:38 AM 38.3194 -78.6642 355° North 159 183 7,000  Level Washington Center
Sun 11:47:38 AM 38.3633 -78.6633 North 159 183 7,000  Level Washington Center
Sun 11:48:39 AM 38.4069 -78.6678 355° North 159 183 7,000  Level Washington Center
Sun 11:49:37 AM 38.4531 -78.6672 North 159 183 7,000  Level Washington Center
Sun 11:50:38 AM 38.4967 -78.6717 355° North 159 183 7,000  Level Washington Center
Sun 11:51:39 AM 38.5425 -78.6736 358° North 159 183 7,000  Level Washington Center
Sun 11:52:39 AM 38.5861 -78.6753 358° North 159 183 7,000  Level Washington Center
Sun 11:53:37 AM 38.6319 -78.6772 358° North 159 183 7,000  Level Washington Center
Sun 11:54:38 AM 38.6736 -78.6817 355° North 159 183 7,000  Level Washington Center
Sun 11:55:39 AM 38.7172 -78.6833 358° North 159 183 7,000  Level Washington Center
Sun 11:56:37 AM 38.7631 -78.6853 358° North 159 183 7,000  Level Washington Center
Sun 11:57:38 AM 38.8069 -78.6872 358° North 159 183 7,000  Level Washington Center
Sun 11:58:38 AM 38.8528 -78.6892 358° North 159 183 7,000  Level Washington Center
Sun 11:59:39 AM 38.8964 -78.6911 358° North 159 183 7,000  Level Washington Center
Sun 12:00:39 PM 38.9400 -78.6956 355° North 159 183 7,000  Level Washington Center
Sun 12:01:37 PM 38.9858 -78.6975 358° North 159 183 7,000  Level Washington Center
Sun 12:02:37 PM 39.0297 -78.6992 358° North 159 183 7,000  Level Washington Center
Sun 12:03:37 PM 39.0733 -78.7011 358° North 159 183 7,000  Level Washington Center
Sun 12:04:38 PM 39.1169 -78.7031 358° North 159 183 7,000  Level Washington Center
Sun 12:05:38 PM 39.1608 -78.7075 356° North 159 183 7,000  Level Washington Center
Sun 12:06:40 PM 39.2044 -78.7094 358° North 159 183 7,000  Level Washington Center
Sun 12:07:37 PM 39.2503 -78.7086 North 159 183 7,000 51 Level Washington Center
Sun 12:08:38 PM 39.2939 -78.7133 355° North 159 183 7,100  Climbing Washington Center
Sun 12:11:08 PM 39.4100 -78.7267 355° North 163 188 7,000 -28 Descending Cleveland Center
Sun 12:12:09 PM 39.4581 -78.7281 359° North 161 185 7,000  Level Cleveland Center
Sun 12:13:09 PM 39.5039 -78.7322 356° North 161 185 7,000  Level Cleveland Center
Sun 12:14:10 PM 39.5478 -78.7336 359° North 161 185 7,000 49 Level Cleveland Center
Sun 12:15:11 PM 39.5936 -78.7378 356° North 163 188 7,100  Climbing Cleveland Center
Sun 12:16:11 PM 39.6417 -78.7419 356° North 165 190 7,000 -50 Descending Cleveland Center
Sun 12:17:12 PM 39.6833 -78.7433 359° North 159 183 7,000  Level Cleveland Center
Sun 12:18:18 PM 39.7333 -78.7447 359° North 157 181 7,000 47 Level Cleveland Center
Sun 12:19:19 PM 39.7792 -78.7461 359° North 158 182 7,100  Climbing Cleveland Center
Sun 12:20:20 PM 39.8253 -78.7531 353° North 160 184 7,000 -50 Descending Cleveland Center
Sun 12:21:20 PM 39.8692 -78.7547 358° North 160 184 7,000  Level Cleveland Center
Sun 12:22:21 PM 39.9128 -78.7561 359° North 159 183 7,000  Level Cleveland Center
Sun 12:23:22 PM 39.9586 -78.7575 359° North 168 193 7,000  Level Cleveland Center
Sun 12:24:22 PM 40.0067 -78.7644 354° North 164 189 7,000  Level Cleveland Center
Sun 12:25:23 PM 40.0506 -78.7658 359° North 160 184 7,000  Level Cleveland Center
Sun 12:26:23 PM 40.0944 -78.7675 358° North 157 181 7,000 50 Level Cleveland Center
Sun 12:27:24 PM 40.1383 -78.7689 359° North 157 181 7,100  Climbing Cleveland Center
Sun 12:28:37 PM 40.1925 -78.7731 357° North 162 186 7,000 -45 Descending Cleveland Center
Sun 12:29:37 PM 40.2383 -78.7744 359° North 164 189 7,000  Level Cleveland Center
Sun 12:30:38 PM 40.2883 -78.7786 356° North 164 189 7,000  Level Cleveland Center
Sun 12:31:39 PM 40.3303 -78.7828 356° North 161 185 7,000  Level Cleveland Center
Sun 12:32:39 PM 40.3739 -78.7844 358° North 155 178 7,000  Level Cleveland Center
Sun 12:33:40 PM 40.4200 -78.7886 356° North 156 180 7,000  Level Cleveland Center
Sun 12:34:34 PM 40.4594 -78.7903 358° North 156 180 7,000  Level Cleveland Center
Sun 12:35:35 PM 40.5033 -78.7919 358° North 158 182 7,000  Level Cleveland Center
Sun 12:36:29 PM 40.5431 -78.7961 355° North 157 181 7,000  Level Cleveland Center
Sun 12:37:30 PM 40.5847 -78.7978 358° North 153 176 7,000  Level Cleveland Center
Sun 12:38:31 PM 40.6306 -78.7992 359° North 155 178 7,000  Level Cleveland Center
Sun 12:39:31 PM 40.6744 -78.8008 358° North 158 182 7,000  Level Cleveland Center
Sun 12:41:12 PM 40.7411 -78.8019 359° North 168 193 7,000  Level Cleveland Center
Sun 12:42:12 PM 40.7850 -78.8061 356° North 163 188 7,000  Level Cleveland Center
Sun 12:43:12 PM 40.8289 -78.8078 358° North 158 182 7,000  Level Cleveland Center
Sun 12:44:12 PM 40.8706 -78.8119 356° North 158 182 7,000  Level Cleveland Center
Sun 12:45:12 PM 40.9144 -78.8136 358° North 158 182 7,000 50 Level Cleveland Center
Sun 12:46:12 PM 40.9583 -78.8153 358° North 158 182 7,100  Climbing Cleveland Center
Sun 12:47:12 PM 41.0042 -78.8194 356° North 158 182 7,000 -50 Descending Cleveland Center
Sun 12:48:12 PM 41.0481 -78.8239 356° North 158 182 7,000  Level Cleveland Center
Sun 12:49:12 PM 41.0919 -78.8253 359° North 158 182 7,000  Level Cleveland Center
Sun 12:50:12 PM 41.1378 -78.8297 356° North 158 182 7,000  Level Cleveland Center
Sun 12:51:12 PM 41.1817 -78.8311 359° North 158 182 7,000  Level Cleveland Center
Sun 12:52:12 PM 41.2275 -78.8356 356° North 158 182 7,000  Level Cleveland Center
Sun 12:53:12 PM 41.2714 -78.8372 358° North 158 182 7,000  Level Cleveland Center
Sun 12:54:12 PM 41.3172 -78.8414 356° North 158 182 7,000 -50 Level Cleveland Center
Sun 12:55:12 PM 41.3611 -78.8431 358° North 158 182 6,900  Descending Cleveland Center
Sun 12:56:12 PM 41.4069 -78.8472 356° North 158 182 7,000 50 Climbing Cleveland Center
Sun 12:57:12 PM 41.4486 -78.8489 358° North 158 182 7,000  Level Cleveland Center
Sun 12:58:12 PM 41.4944 -78.8506 358° North 158 182 7,000  Level Cleveland Center
Sun 12:59:12 PM 41.5383 -78.8522 358° North 158 182 7,000  Level Cleveland Center
Sun 01:00:12 PM 41.5800 -78.8567 355° North 158 182 7,000  Level Cleveland Center
Sun 01:01:12 PM 41.6261 -78.8581 359° North 158 182 7,000  Level Cleveland Center
Sun 01:02:12 PM 41.6700 -78.8625 356° North 158 182 7,000  Level Cleveland Center
Sun 01:03:12 PM 41.7136 -78.8642 358° North 158 182 7,000  Level Cleveland Center
Sun 01:04:12 PM 41.7553 -78.8658 358° North 158 182 7,000  Level Cleveland Center
Sun 01:05:12 PM 41.7992 -78.8703 356° North 158 182 7,000  Level Cleveland Center
Sun 01:06:12 PM 41.8431 -78.8747 356° North 158 182 7,000  Level Cleveland Center
Sun 01:07:12 PM 41.8847 -78.8761 359° North 158 182 7,000 -50 Level Cleveland Center
Sun 01:08:12 PM 41.9264 -78.8781 358° North 158 182 6,900 -50 Descending Cleveland Center
Sun 01:09:12 PM 41.9703 -78.8822 356° North 153 176 6,900 50 Level Cleveland Center
Sun 01:10:12 PM 42.0142 -78.8839 358° North 153 176 7,000 50 Climbing Cleveland Center
Sun 01:11:12 PM 42.0581 -78.8883 356° North 158 182 7,000  Level Cleveland Center
Sun 01:12:12 PM 42.0997 -78.8900 358° North 158 182 7,000  Level Cleveland Center
Sun 01:13:12 PM 42.1456 -78.8917 358° North 158 182 7,000  Level Cleveland Center
Sun 01:14:12 PM 42.1872 -78.8961 355° North 158 182 7,000  Level Cleveland Center
Sun 01:15:12 PM 42.2353 -78.8950 North 163 188 7,000 50 Level Cleveland Center
Sun 01:16:12 PM 42.2769 -78.8967 358° North 158 182 7,100  Climbing Cleveland Center
Sun 01:17:12 PM 42.3186 -78.9011 355° North 158 182 7,000  Descending Cleveland Center
Sun 01:18:12 PM 42.3625 -78.9056 356° North 152 175 7,100  Climbing Cleveland Center
Sun 01:19:12 PM 42.4128 -78.9100 356° North 157 181 7,000  Descending Cleveland Center
Sun 01:20:12 PM 42.4544 -78.9117 358° North 157 181 7,100 50 Climbing Cleveland Center
Sun 01:21:12 PM 42.4942 -78.9161 355° North 157 181 7,100  Level Cleveland Center
Sun 01:22:12 PM 42.5336 -78.9208 355° North 157 181 7,100  Level Cleveland Center
Sun 01:23:12 PM 42.5733 -78.9197 North 150 173 7,100  Level Cleveland Center
Sun 01:24:12 PM 42.6192 -78.9214 358° North 150 173 7,100  Level Cleveland Center
Sun 01:25:12 PM 42.6631 -78.9231 358° North 150 173 7,100  Level Cleveland Center
Sun 01:26:12 PM 42.7067 -78.9247 358° North 150 173 7,100  Level Cleveland Center
Sun 01:27:12 PM 42.7464 -78.9292 355° North 150 173 7,100  Level Cleveland Center
Sun 01:28:12 PM 42.7881 -78.9311 358° North 145 167 7,100 -367 Level Cleveland Center
Sun 01:30:12 PM 42.8833 -78.9333 359° North 173 199 6,000 -533 Descending Buffalo TRACON
Sun 01:31:12 PM 42.9167 -78.9333 360° North 160 184 5,500 -500 Descending Buffalo TRACON
Sun 01:32:12 PM 42.9667 -78.9500 346° North 156 180 5,000 -350 Descending Buffalo TRACON
Sun 01:33:12 PM 43.0000 -78.9667 340° North 112 129 4,800 -714 Descending Buffalo TRACON
Sun 01:34:18 PM 43.0333 -78.9667 360° North 119 137 3,500 -1,000 Descending Buffalo TRACON
Sun 01:35:18 PM 43.0667 -78.9833 340° North 114 131 2,700 -1,000 Descending Buffalo TRACON
Sun 01:36:18 PM 43.0833 -78.9667 36° Northeast 95 109 1,500 -942 Descending Buffalo TRACON
Sun 01:37:19 PM 43.1000 -78.9500 36° Northeast 86 99 800 -689 Descending Buffalo TRACON

Login

Don't have an account? Register now (free) for customized features, flight alerts, and more!